Time;durP1;ratioP1;P1;durP2;ratioP2;P2;SDS_P1;SDS_P2;PMS_P1;PMS_P2;Temp;Humidity;BMP_temperature;BMP_pressure;BME280_temperature;BME280_humidity;BME280_pressure;Samples;Min_cycle;Max_cycle;Signal;HPM_P1;HPM_P2
2021/12/10 00:00:55;;;;;;;3.63;1.45;;;;;;;;;;5053762;28;20527;-66
2021/12/10 00:03:36;;;;;;;1.98;1.52;;;;;;;;;;5053667;28;20279;-65
2021/12/10 00:06:10;;;;;;;7.72;1.60;;;;;;;;;;5052330;28;20206;-65
2021/12/10 00:08:38;;;;;;;2.40;1.60;;;;;;;;;;5052108;28;20258;-66
2021/12/10 00:11:09;;;;;;;2.30;1.77;;;;;;;;;;5053436;28;20227;-64
2021/12/10 00:13:36;;;;;;;4.20;1.80;;;;;;;;;;5052975;28;20171;-67
2021/12/10 00:16:02;;;;;;;5.10;1.77;;;;;;;;;;5053456;28;20260;-65
2021/12/10 00:18:33;;;;;;;3.30;2.20;;;;;;;;;;5053400;28;20184;-65
2021/12/10 00:21:01;;;;;;;2.50;2.30;;;;;;;;;;5053461;28;20263;-65
2021/12/10 00:23:30;;;;;;;2.72;1.92;;;;;;;;;;5053438;28;20620;-65
2021/12/10 00:25:56;;;;;;;4.60;2.10;;;;;;;;;;5053362;28;20161;-65
2021/12/10 00:28:27;;;;;;;1.83;1.50;;;;;;;;;;5053482;28;20169;-68
2021/12/10 00:31:03;;;;;;;3.13;1.77;;;;;;;;;;5053273;28;20207;-65
2021/12/10 00:33:32;;;;;;;4.28;1.98;;;;;;;;;;5053212;28;20540;-69
2021/12/10 00:35:58;;;;;;;3.75;2.15;;;;;;;;;;5053326;28;20214;-65
2021/12/10 00:38:25;;;;;;;2.90;1.70;;;;;;;;;;5053256;28;20244;-65
2021/12/10 00:40:51;;;;;;;3.75;1.85;;;;;;;;;;5053207;28;20172;-72
2021/12/10 00:43:17;;;;;;;2.65;2.00;;;;;;;;;;5053416;28;20179;-73
2021/12/10 00:45:43;;;;;;;8.15;1.98;;;;;;;;;;5053266;28;20169;-71
2021/12/10 00:48:09;;;;;;;2.75;1.95;;;;;;;;;;5053283;28;20188;-76
2021/12/10 00:50:37;;;;;;;9.57;1.90;;;;;;;;;;5053091;28;20196;-75
2021/12/10 00:53:03;;;;;;;4.00;1.70;;;;;;;;;;5053249;28;20674;-73
2021/12/10 00:55:30;;;;;;;6.10;1.80;;;;;;;;;;5053192;28;20170;-77
2021/12/10 00:57:57;;;;;;;6.03;2.08;;;;;;;;;;5053126;28;20204;-77
2021/12/10 01:00:25;;;;;;;4.43;2.75;;;;;;;;;;5053089;28;20169;-74
2021/12/10 01:02:52;;;;;;;3.17;2.33;;;;;;;;;;5053168;28;20168;-71
2021/12/10 01:05:19;;;;;;;3.45;2.05;;;;;;;;;;5053125;28;20168;-68
2021/12/10 01:07:45;;;;;;;2.67;1.90;;;;;;;;;;5053067;28;20168;-75
2021/12/10 01:10:18;;;;;;;5.78;2.50;;;;;;;;;;5052634;28;20431;-74
2021/12/10 01:12:46;;;;;;;6.95;2.30;;;;;;;;;;5052926;28;20180;-71
2021/12/10 01:28:35;;;;;;;2.58;1.73;;;;;;;;;;5056868;28;20175;-76
2021/12/10 01:31:01;;;;;;;2.53;1.50;;;;;;;;;;5056517;28;20627;-75
2021/12/10 01:33:27;;;;;;;5.85;2.00;;;;;;;;;;5056438;28;20180;-73
2021/12/10 01:35:56;;;;;;;1.70;1.60;;;;;;;;;;5056474;28;20550;-66
2021/12/10 01:38:23;;;;;;;4.07;1.58;;;;;;;;;;5056406;28;20902;-68
2021/12/10 01:40:52;;;;;;;5.78;1.55;;;;;;;;;;5056372;28;20166;-65
2021/12/10 01:43:25;;;;;;;4.75;1.58;;;;;;;;;;5055051;28;20180;-65
2021/12/10 01:46:02;;;;;;;3.53;2.00;;;;;;;;;;5056244;28;20157;-67
2021/12/10 01:48:31;;;;;;;3.95;2.38;;;;;;;;;;5056145;28;20179;-66
2021/12/10 01:50:58;;;;;;;2.97;1.80;;;;;;;;;;5056108;28;20200;-73
2021/12/10 01:53:25;;;;;;;2.58;1.88;;;;;;;;;;5056184;28;20251;-70
2021/12/10 01:55:53;;;;;;;8.52;4.15;;;;;;;;;;5056015;28;20173;-70
2021/12/10 01:58:22;;;;;;;5.72;4.05;;;;;;;;;;5056067;28;20546;-67
2021/12/10 02:00:51;;;;;;;6.97;3.88;;;;;;;;;;5055967;28;20167;-72
2021/12/10 02:03:19;;;;;;;6.70;4.40;;;;;;;;;;5055924;28;20180;-75
2021/12/10 02:05:45;;;;;;;4.15;3.20;;;;;;;;;;5055969;28;20164;-70
2021/12/10 02:08:11;;;;;;;3.65;3.10;;;;;;;;;;5055645;28;20579;-65
2021/12/10 02:10:37;;;;;;;13.55;3.72;;;;;;;;;;5055685;28;20197;-66
2021/12/10 02:13:04;;;;;;;9.18;2.78;;;;;;;;;;5055719;28;20263;-70
2021/12/10 02:15:30;;;;;;;3.75;2.40;;;;;;;;;;5055791;28;20169;-66
2021/12/10 02:17:57;;;;;;;4.20;2.67;;;;;;;;;;5055647;28;20774;-68
2021/12/10 02:20:26;;;;;;;9.27;3.50;;;;;;;;;;5055579;28;20658;-69
2021/12/10 02:22:52;;;;;;;4.25;3.55;;;;;;;;;;5055567;28;20164;-65
2021/12/10 02:25:20;;;;;;;12.30;3.40;;;;;;;;;;5055530;28;20180;-68
2021/12/10 02:27:46;;;;;;;2.83;2.60;;;;;;;;;;5054273;28;20555;-65
2021/12/10 02:30:13;;;;;;;4.68;3.40;;;;;;;;;;5055366;28;20230;-68
2021/12/10 02:32:39;;;;;;;4.40;2.92;;;;;;;;;;5055389;28;20584;-65
2021/12/10 02:35:06;;;;;;;4.80;3.17;;;;;;;;;;5055356;28;20628;-66
2021/12/10 02:37:32;;;;;;;3.42;2.63;;;;;;;;;;5054835;28;20161;-65
2021/12/10 02:39:58;;;;;;;4.40;3.20;;;;;;;;;;5055290;28;20171;-67
2021/12/10 02:42:24;;;;;;;2.33;2.03;;;;;;;;;;5055250;28;20567;-65
2021/12/10 02:44:50;;;;;;;7.23;4.50;;;;;;;;;;5055154;28;20413;-65
2021/12/10 02:47:20;;;;;;;3.55;2.97;;;;;;;;;;5055207;28;20767;-66
2021/12/10 02:49:46;;;;;;;9.82;3.22;;;;;;;;;;5055338;28;20207;-66
2021/12/10 02:52:13;;;;;;;2.53;2.33;;;;;;;;;;5053679;28;20223;-66
2021/12/10 02:54:42;;;;;;;5.05;2.55;;;;;;;;;;5054950;28;20521;-67
2021/12/10 02:57:13;;;;;;;9.82;5.60;;;;;;;;;;5054950;28;20160;-67
2021/12/10 02:59:40;;;;;;;15.98;7.00;;;;;;;;;;5054904;28;20175;-69
2021/12/10 03:02:07;;;;;;;15.57;7.60;;;;;;;;;;5054809;28;20221;-66
2021/12/10 03:04:34;;;;;;;13.75;7.22;;;;;;;;;;5054754;28;20177;-70
2021/12/10 03:07:03;;;;;;;6.85;4.65;;;;;;;;;;5054721;28;20298;-71
2021/12/10 03:09:29;;;;;;;4.07;3.00;;;;;;;;;;5053271;28;20263;-66
2021/12/10 03:11:56;;;;;;;5.00;2.53;;;;;;;;;;5054524;28;20208;-68
2021/12/10 03:14:25;;;;;;;5.85;3.50;;;;;;;;;;5053349;28;20178;-66
2021/12/10 03:16:52;;;;;;;3.45;2.80;;;;;;;;;;5053266;28;20184;-65
2021/12/10 03:19:18;;;;;;;3.03;2.70;;;;;;;;;;5054507;28;20557;-65
2021/12/10 03:21:45;;;;;;;6.88;2.80;;;;;;;;;;5054455;28;20161;-65
2021/12/10 03:24:12;;;;;;;2.65;2.40;;;;;;;;;;5054599;28;20587;-65
2021/12/10 03:26:38;;;;;;;2.60;2.40;;;;;;;;;;5054396;28;20251;-67
2021/12/10 03:29:04;;;;;;;5.32;3.90;;;;;;;;;;5054349;28;20169;-66
2021/12/10 03:31:31;;;;;;;3.35;3.20;;;;;;;;;;5052917;28;20219;-66
2021/12/10 03:33:57;;;;;;;5.00;3.20;;;;;;;;;;5054189;28;20194;-68
2021/12/10 03:36:23;;;;;;;8.60;4.78;;;;;;;;;;5054123;28;20650;-66
2021/12/10 03:38:50;;;;;;;4.35;3.50;;;;;;;;;;5054133;28;20177;-69
2021/12/10 03:41:16;;;;;;;6.18;2.70;;;;;;;;;;5052833;28;20179;-65
2021/12/10 03:43:43;;;;;;;8.13;3.25;;;;;;;;;;5054034;28;20172;-65
2021/12/10 03:46:10;;;;;;;2.70;2.50;;;;;;;;;;5054040;28;20165;-66
2021/12/10 03:48:40;;;;;;;2.78;2.58;;;;;;;;;;5053045;28;20180;-65
2021/12/10 03:51:08;;;;;;;5.78;2.38;;;;;;;;;;5053880;28;20204;-65
2021/12/10 03:53:34;;;;;;;4.25;2.10;;;;;;;;;;5053826;28;20165;-65
2021/12/10 03:56:04;;;;;;;6.05;2.30;;;;;;;;;;5053812;28;20164;-65
2021/12/10 03:58:30;;;;;;;2.60;2.35;;;;;;;;;;5053855;28;20165;-67
2021/12/10 04:00:57;;;;;;;8.27;2.65;;;;;;;;;;5053818;28;20177;-68
2021/12/10 04:03:25;;;;;;;6.70;2.30;;;;;;;;;;5053689;28;20207;-66
2021/12/10 04:05:51;;;;;;;7.80;3.90;;;;;;;;;;5053651;28;20244;-65
2021/12/10 04:08:17;;;;;;;12.57;5.70;;;;;;;;;;5053403;28;20235;-65
2021/12/10 04:10:44;;;;;;;10.90;4.20;;;;;;;;;;5053570;28;20212;-67
2021/12/10 04:13:10;;;;;;;7.18;3.15;;;;;;;;;;5053616;28;20615;-66
2021/12/10 04:15:38;;;;;;;21.55;6.32;;;;;;;;;;5052359;28;20187;-71
2021/12/10 04:18:04;;;;;;;29.02;6.43;;;;;;;;;;5053778;28;20188;-73
2021/12/10 04:20:31;;;;;;;23.88;7.68;;;;;;;;;;5053557;28;20575;-67
2021/12/10 04:22:59;;;;;;;75.90;17.30;;;;;;;;;;5053468;28;20256;-66
2021/12/10 04:25:25;;;;;;;8.65;3.38;;;;;;;;;;5053440;28;20176;-65
2021/12/10 04:27:52;;;;;;;12.15;4.82;;;;;;;;;;5053400;28;20214;-70
2021/12/10 04:30:19;;;;;;;31.35;10.43;;;;;;;;;;5052053;28;20187;-66
2021/12/10 04:32:45;;;;;;;6.57;5.10;;;;;;;;;;5053325;28;20761;-67
2021/12/10 04:35:12;;;;;;;27.27;9.85;;;;;;;;;;5053357;28;20222;-69
2021/12/10 04:37:38;;;;;;;35.35;8.73;;;;;;;;;;5052039;28;20191;-75
2021/12/10 04:40:06;;;;;;;19.13;6.80;;;;;;;;;;5053359;28;20152;-67
2021/12/10 04:42:32;;;;;;;28.92;8.85;;;;;;;;;;5051983;28;20643;-74
2021/12/10 04:44:59;;;;;;;41.53;11.68;;;;;;;;;;5053538;28;20580;-76
2021/12/10 04:47:26;;;;;;;29.73;9.40;;;;;;;;;;5053206;28;20157;-72
2021/12/10 04:49:52;;;;;;;45.45;12.85;;;;;;;;;;5053161;28;20181;-73
2021/12/10 04:52:19;;;;;;;20.95;7.40;;;;;;;;;;5053053;28;20219;-73
2021/12/10 04:54:45;;;;;;;7.30;3.67;;;;;;;;;;5053182;28;20252;-75
2021/12/10 04:57:11;;;;;;;71.10;39.40;;;;;;;;;;5053180;28;20274;-74
2021/12/10 04:59:38;;;;;;;54.67;25.58;;;;;;;;;;5054687;28;20172;-74
2021/12/10 05:02:06;;;;;;;4.10;2.97;;;;;;;;;;5057092;28;20169;-69
2021/12/10 05:04:32;;;;;;;15.23;5.45;;;;;;;;;;5057034;28;20577;-71
2021/12/10 05:06:59;;;;;;;46.88;11.38;;;;;;;;;;5057006;28;20172;-73
2021/12/10 05:09:25;;;;;;;29.23;8.18;;;;;;;;;;5056999;28;20582;-72
2021/12/10 05:11:52;;;;;;;43.38;15.48;;;;;;;;;;5056780;28;20210;-75
2021/12/10 05:14:18;;;;;;;28.15;10.90;;;;;;;;;;5056887;28;20643;-70
2021/12/10 05:16:46;;;;;;;9.73;5.75;;;;;;;;;;5056767;28;20515;-72
2021/12/10 05:19:13;;;;;;;30.00;10.75;;;;;;;;;;5056610;28;20172;-67
2021/12/10 05:21:40;;;;;;;21.85;8.50;;;;;;;;;;5056627;28;20171;-68
2021/12/10 05:24:07;;;;;;;3.72;2.60;;;;;;;;;;5056674;28;20169;-75
2021/12/10 05:26:33;;;;;;;4.43;2.88;;;;;;;;;;5056687;28;20172;-76
2021/12/10 05:28:59;;;;;;;9.07;5.05;;;;;;;;;;5056651;28;20168;-67
2021/12/10 05:31:26;;;;;;;9.15;5.32;;;;;;;;;;5056478;28;20269;-67
2021/12/10 05:33:52;;;;;;;2.65;2.35;;;;;;;;;;5056572;28;20511;-68
2021/12/10 05:36:18;;;;;;;2.60;2.47;;;;;;;;;;5056463;28;20190;-66
2021/12/10 05:38:44;;;;;;;14.90;8.48;;;;;;;;;;5056419;28;20430;-65
2021/12/10 05:41:10;;;;;;;12.07;8.35;;;;;;;;;;5056455;28;20194;-65
2021/12/10 05:43:41;;;;;;;9.43;4.55;;;;;;;;;;5056294;28;20698;-66
2021/12/10 05:46:08;;;;;;;8.25;2.78;;;;;;;;;;5056330;28;20502;-65
2021/12/10 05:48:34;;;;;;;9.25;6.00;;;;;;;;;;5056197;28;20176;-67
2021/12/10 05:51:00;;;;;;;7.57;5.88;;;;;;;;;;5056062;28;20299;-66
2021/12/10 05:53:26;;;;;;;16.70;8.55;;;;;;;;;;5056190;28;20165;-65
2021/12/10 05:55:52;;;;;;;16.48;8.57;;;;;;;;;;5056095;28;20616;-65
2021/12/10 05:58:18;;;;;;;13.45;7.80;;;;;;;;;;5054814;28;20192;-67
2021/12/10 06:00:50;;;;;;;6.95;5.20;;;;;;;;;;5056026;28;20203;-66
2021/12/10 06:03:17;;;;;;;3.20;2.95;;;;;;;;;;5055924;28;20192;-65
2021/12/10 06:05:44;;;;;;;6.33;3.97;;;;;;;;;;5055380;28;20795;-64
2021/12/10 06:08:10;;;;;;;5.78;2.95;;;;;;;;;;5055709;28;20510;-65
2021/12/10 06:10:36;;;;;;;7.05;3.00;;;;;;;;;;5055009;28;20204;-69
2021/12/10 06:13:02;;;;;;;4.90;2.97;;;;;;;;;;5055664;28;20164;-67
2021/12/10 06:15:29;;;;;;;3.10;2.90;;;;;;;;;;5055859;28;20179;-68
2021/12/10 06:17:55;;;;;;;2.67;2.50;;;;;;;;;;5055673;28;20181;-65
2021/12/10 06:20:29;;;;;;;6.95;3.60;;;;;;;;;;5055549;28;20505;-64
2021/12/10 06:22:55;;;;;;;3.40;3.10;;;;;;;;;;5055824;28;20172;-64
2021/12/10 06:25:22;;;;;;;7.53;6.88;;;;;;;;;;5055520;28;20192;-64
2021/12/10 06:27:48;;;;;;;3.90;3.70;;;;;;;;;;5055510;28;20172;-66
2021/12/10 06:30:15;;;;;;;3.83;3.30;;;;;;;;;;5055383;28;20260;-64
2021/12/10 06:32:42;;;;;;;5.25;3.30;;;;;;;;;;5055133;28;20435;-62
2021/12/10 06:35:09;;;;;;;3.40;3.30;;;;;;;;;;5055321;28;20188;-63
2021/12/10 06:37:35;;;;;;;3.20;3.10;;;;;;;;;;5055584;28;20172;-64
2021/12/10 06:40:01;;;;;;;6.97;3.10;;;;;;;;;;5055348;28;20188;-64
2021/12/10 06:42:27;;;;;;;4.43;3.37;;;;;;;;;;5055216;28;20195;-63
2021/12/10 06:44:53;;;;;;;10.15;4.78;;;;;;;;;;5055222;28;20414;-64
2021/12/10 06:47:19;;;;;;;6.50;4.17;;;;;;;;;;5053976;28;20176;-67
2021/12/10 06:49:45;;;;;;;4.10;3.80;;;;;;;;;;5053799;28;20427;-67
2021/12/10 06:52:12;;;;;;;4.43;2.95;;;;;;;;;;5055044;28;20541;-67
2021/12/10 06:54:39;;;;;;;4.93;2.80;;;;;;;;;;5053834;28;20608;-67
2021/12/10 06:57:05;;;;;;;3.72;2.70;;;;;;;;;;5055008;28;20584;-65
2021/12/10 06:59:31;;;;;;;2.20;2.10;;;;;;;;;;5054938;28;20165;-66
2021/12/10 07:01:57;;;;;;;4.45;2.50;;;;;;;;;;5054153;28;20259;-65
2021/12/10 07:04:23;;;;;;;6.10;2.80;;;;;;;;;;5054736;28;20631;-63
2021/12/10 07:06:50;;;;;;;4.25;3.45;;;;;;;;;;5054708;28;20951;-63
2021/12/10 07:09:18;;;;;;;4.70;4.30;;;;;;;;;;5054497;28;20235;-65
2021/12/10 07:11:45;;;;;;;8.20;5.47;;;;;;;;;;5053310;28;20203;-64
2021/12/10 07:14:11;;;;;;;11.23;6.22;;;;;;;;;;5054644;28;20161;-65
2021/12/10 07:16:37;;;;;;;8.40;6.17;;;;;;;;;;5054623;28;20168;-63
2021/12/10 07:19:05;;;;;;;9.43;6.63;;;;;;;;;;5053171;28;20918;-65
2021/12/10 07:21:31;;;;;;;7.47;6.68;;;;;;;;;;5054417;28;20557;-65
2021/12/10 07:23:59;;;;;;;13.93;6.35;;;;;;;;;;5054240;28;20681;-66
2021/12/10 07:26:27;;;;;;;7.93;7.32;;;;;;;;;;5054336;28;20248;-65
2021/12/10 07:28:53;;;;;;;10.88;6.80;;;;;;;;;;5054329;28;20161;-68
2021/12/10 07:31:19;;;;;;;15.95;8.50;;;;;;;;;;5054181;28;20564;-67
2021/12/10 07:33:45;;;;;;;11.65;8.93;;;;;;;;;;5054117;28;20246;-66
2021/12/10 07:36:12;;;;;;;12.73;8.33;;;;;;;;;;5054078;28;20624;-66
2021/12/10 07:38:38;;;;;;;13.98;8.60;;;;;;;;;;5054077;28;20918;-65
2021/12/10 07:41:06;;;;;;;9.37;8.37;;;;;;;;;;5054064;28;20175;-66
2021/12/10 07:43:32;;;;;;;10.40;7.40;;;;;;;;;;5053906;28;20949;-66
2021/12/10 07:45:59;;;;;;;9.43;7.40;;;;;;;;;;5054056;28;20168;-66
2021/12/10 07:48:27;;;;;;;19.67;10.05;;;;;;;;;;5053843;28;20184;-77
2021/12/10 07:50:59;;;;;;;12.55;8.55;;;;;;;;;;5053924;28;20211;-77
2021/12/10 07:53:26;;;;;;;7.60;6.85;;;;;;;;;;5052713;28;20175;-77
2021/12/10 07:55:52;;;;;;;17.95;7.05;;;;;;;;;;5053776;28;20168;-76
2021/12/10 07:58:18;;;;;;;17.40;6.22;;;;;;;;;;5053871;28;20583;-77
2021/12/10 08:00:45;;;;;;;17.92;7.68;;;;;;;;;;5053763;28;20169;-77
2021/12/10 08:03:12;;;;;;;9.85;7.85;;;;;;;;;;5053636;28;20185;-78
2021/12/10 08:05:39;;;;;;;14.23;8.80;;;;;;;;;;5053594;28;20180;-77
2021/12/10 08:08:08;;;;;;;11.88;8.02;;;;;;;;;;5053533;28;20172;-67
2021/12/10 08:10:35;;;;;;;7.88;7.00;;;;;;;;;;5053539;28;20625;-66
2021/12/10 08:13:01;;;;;;;7.22;6.72;;;;;;;;;;5053479;28;20248;-66
2021/12/10 08:15:27;;;;;;;15.33;8.30;;;;;;;;;;5053587;28;20251;-71
2021/12/10 08:17:53;;;;;;;10.20;7.10;;;;;;;;;;5053465;28;20414;-66
2021/12/10 08:20:22;;;;;;;34.45;17.27;;;;;;;;;;5053509;28;20173;-68
2021/12/10 08:22:48;;;;;;;15.10;9.90;;;;;;;;;;5053655;28;20168;-76
2021/12/10 08:25:15;;;;;;;9.98;8.20;;;;;;;;;;5052092;28;20183;-77
2021/12/10 08:27:41;;;;;;;9.63;8.73;;;;;;;;;;5053387;28;20168;-76
2021/12/10 08:30:08;;;;;;;16.15;9.15;;;;;;;;;;5053470;28;20165;-77
2021/12/10 08:32:35;;;;;;;21.58;8.57;;;;;;;;;;5053189;28;20249;-77
2021/12/10 08:35:02;;;;;;;11.68;9.15;;;;;;;;;;5051573;28;20630;-73
2021/12/10 08:37:28;;;;;;;26.77;12.40;;;;;;;;;;5053304;28;20172;-74
2021/12/10 08:39:55;;;;;;;12.57;8.50;;;;;;;;;;5053101;28;20164;-75
2021/12/10 08:42:21;;;;;;;11.30;8.05;;;;;;;;;;5053183;28;20172;-77
2021/12/10 08:44:48;;;;;;;17.17;10.30;;;;;;;;;;5053303;28;20160;-77
2021/12/10 08:47:15;;;;;;;25.73;12.93;;;;;;;;;;5052525;28;20165;-69
2021/12/10 08:49:41;;;;;;;27.02;13.30;;;;;;;;;;5051844;28;20614;-77
2021/12/10 08:52:08;;;;;;;25.40;13.25;;;;;;;;;;5053133;28;20200;-67
2021/12/10 08:54:35;;;;;;;27.10;13.50;;;;;;;;;;5053036;28;20649;-66
2021/12/10 08:57:01;;;;;;;20.02;12.30;;;;;;;;;;5051865;28;20249;-69
2021/12/10 08:59:28;;;;;;;7.47;6.78;;;;;;;;;;5053098;28;20171;-66
2021/12/10 09:01:56;;;;;;;6.85;6.30;;;;;;;;;;5053332;28;20172;-66
2021/12/10 09:04:23;;;;;;;90.88;23.65;;;;;;;;;;5053014;28;20694;-66
2021/12/10 09:06:51;;;;;;;28.55;10.85;;;;;;;;;;5052981;28;20172;-66
2021/12/10 09:09:18;;;;;;;12.43;7.95;;;;;;;;;;5052855;28;20299;-66
2021/12/10 09:11:46;;;;;;;59.35;17.60;;;;;;;;;;5052905;28;20215;-66
2021/12/10 09:14:14;;;;;;;55.95;17.27;;;;;;;;;;5051637;28;20181;-66
2021/12/10 09:16:40;;;;;;;47.95;14.68;;;;;;;;;;5052775;28;20160;-68
2021/12/10 09:19:07;;;;;;;35.97;12.20;;;;;;;;;;5052865;28;20168;-66
2021/12/10 09:21:35;;;;;;;76.63;21.15;;;;;;;;;;5051576;28;20195;-67
2021/12/10 09:24:04;;;;;;;43.20;15.60;;;;;;;;;;5053032;28;20532;-67
2021/12/10 09:26:32;;;;;;;10.93;7.10;;;;;;;;;;5052804;28;20247;-68
2021/12/10 09:28:58;;;;;;;7.97;6.55;;;;;;;;;;5051585;28;20184;-67
2021/12/10 09:31:25;;;;;;;13.60;7.32;;;;;;;;;;5052645;28;20259;-68
2021/12/10 09:33:53;;;;;;;62.35;21.83;;;;;;;;;;5052709;28;20230;-68
2021/12/10 09:36:19;;;;;;;10.25;8.50;;;;;;;;;;5052705;28;20165;-70
2021/12/10 09:38:45;;;;;;;18.48;10.30;;;;;;;;;;5052842;28;20230;-67
2021/12/10 09:41:11;;;;;;;19.50;11.50;;;;;;;;;;5052696;28;20241;-66
2021/12/10 09:43:38;;;;;;;9.93;8.85;;;;;;;;;;5051434;28;20181;-66
2021/12/10 09:46:04;;;;;;;11.15;8.50;;;;;;;;;;5053201;28;20171;-66
2021/12/10 09:48:31;;;;;;;9.27;8.35;;;;;;;;;;5056226;28;20184;-67
2021/12/10 09:51:00;;;;;;;11.00;8.40;;;;;;;;;;5054806;28;20220;-67
2021/12/10 09:53:27;;;;;;;20.13;10.40;;;;;;;;;;5056188;28;20210;-70
2021/12/10 09:55:54;;;;;;;13.55;9.07;;;;;;;;;;5054807;28;20185;-66
2021/12/10 09:58:20;;;;;;;15.57;9.30;;;;;;;;;;5055972;28;20207;-67
2021/12/10 10:00:48;;;;;;;9.93;8.90;;;;;;;;;;5056029;28;20191;-77
2021/12/10 10:03:18;;;;;;;38.28;17.52;;;;;;;;;;5054626;28;20229;-67
2021/12/10 10:05:46;;;;;;;12.05;10.13;;;;;;;;;;5054675;28;20184;-77
2021/12/10 10:08:14;;;;;;;32.08;16.23;;;;;;;;;;5055679;28;20577;-70
2021/12/10 10:10:42;;;;;;;86.18;28.92;;;;;;;;;;5055688;28;20724;-68
2021/12/10 10:13:10;;;;;;;24.85;13.60;;;;;;;;;;5055855;28;20261;-66
2021/12/10 10:15:39;;;;;;;27.77;14.88;;;;;;;;;;5055715;28;20168;-74
2021/12/10 10:18:06;;;;;;;23.75;13.93;;;;;;;;;;5055640;28;20712;-68
2021/12/10 10:20:34;;;;;;;25.10;14.10;;;;;;;;;;5054436;28;20184;-68
2021/12/10 10:23:00;;;;;;;27.05;14.13;;;;;;;;;;5055589;28;20283;-76
2021/12/10 10:25:27;;;;;;;34.47;18.35;;;;;;;;;;5055539;28;20187;-67
2021/12/10 10:27:54;;;;;;;28.98;15.68;;;;;;;;;;5055490;28;20168;-67
2021/12/10 10:30:27;;;;;;;25.10;16.38;;;;;;;;;;5055401;28;20639;-68
2021/12/10 10:32:54;;;;;;;19.98;15.52;;;;;;;;;;5055594;28;20188;-67
2021/12/10 10:35:23;;;;;;;13.38;10.18;;;;;;;;;;5055307;28;20196;-66
2021/12/10 10:37:49;;;;;;;8.90;8.15;;;;;;;;;;5055494;28;20176;-67
2021/12/10 10:40:17;;;;;;;9.27;8.40;;;;;;;;;;5055276;28;20214;-67
2021/12/10 10:42:44;;;;;;;7.88;7.28;;;;;;;;;;5055006;28;20621;-67
2021/12/10 10:45:11;;;;;;;7.80;6.80;;;;;;;;;;5055287;28;20165;-66
2021/12/10 10:47:38;;;;;;;2.65;2.60;;;;;;;;;;5055046;28;20172;-66
2021/12/10 10:50:15;;;;;;;2.45;2.35;;;;;;;;;;5055062;28;20200;-74
2021/12/10 10:52:43;;;;;;;1.13;1.13;;;;;;;;;;5055003;28;20682;-66
2021/12/10 10:55:12;;;;;;;1.17;1.17;;;;;;;;;;5055049;28;20179;-66
2021/12/10 10:57:59;;;;;;;0.60;0.60;;;;;;;;;;5054516;28;20294;-68
2021/12/10 11:00:29;;;;;;;0.63;0.63;;;;;;;;;;5055168;28;20180;-66
2021/12/10 11:03:00;;;;;;;0.88;0.88;;;;;;;;;;5055002;28;20233;-67
2021/12/10 11:05:26;;;;;;;0.40;0.40;;;;;;;;;;5054856;28;20156;-66
2021/12/10 11:07:54;;;;;;;1.50;1.50;;;;;;;;;;5054774;28;20698;-66
2021/12/10 11:10:26;;;;;;;0.55;0.55;;;;;;;;;;5054627;28;20188;-67
2021/12/10 11:12:52;;;;;;;1.05;1.05;;;;;;;;;;5054841;28;20234;-66
2021/12/10 11:15:19;;;;;;;0.70;0.70;;;;;;;;;;5054676;28;20157;-66
2021/12/10 11:17:47;;;;;;;0.50;0.50;;;;;;;;;;5054697;28;20169;-66
2021/12/10 11:20:27;;;;;;;0.60;0.60;;;;;;;;;;5054499;28;20593;-66
2021/12/10 11:22:55;;;;;;;1.05;1.05;;;;;;;;;;5053182;28;20275;-67
2021/12/10 11:25:23;;;;;;;1.00;1.00;;;;;;;;;;5054478;28;20640;-66
2021/12/10 11:27:50;;;;;;;0.57;0.57;;;;;;;;;;5054374;28;20177;-68
2021/12/10 11:30:19;;;;;;;0.40;0.40;;;;;;;;;;5054354;28;20244;-67
2021/12/10 11:32:46;;;;;;;0.75;0.75;;;;;;;;;;5054465;28;20208;-67
2021/12/10 11:35:18;;;;;;;0.63;0.63;;;;;;;;;;5054490;28;20587;-69
2021/12/10 11:38:05;;;;;;;0.52;0.52;;;;;;;;;;5054299;28;20207;-67
2021/12/10 11:40:38;;;;;;;0.70;0.70;;;;;;;;;;5054125;28;20210;-67
2021/12/10 11:45:52;;;;;;;0.82;0.73;;;;;;;;;;5054276;28;20172;-68
2021/12/10 11:48:25;;;;;;;0.60;0.60;;;;;;;;;;5052650;28;20179;-72
2021/12/10 11:51:17;;;;;;;0.80;0.80;;;;;;;;;;5053914;28;20196;-70
2021/12/10 11:53:54;;;;;;;0.55;0.55;;;;;;;;;;5045339;28;20199;-67
2021/12/10 11:56:27;;;;;;;0.70;0.70;;;;;;;;;;5053810;28;20176;-69
2021/12/10 11:59:12;;;;;;;1.17;1.17;;;;;;;;;;5053871;28;20612;-68
2021/12/10 12:01:47;;;;;;;1.20;1.20;;;;;;;;;;5054048;28;20717;-67
2021/12/10 12:04:25;;;;;;;1.02;0.90;;;;;;;;;;5053944;28;20176;-68
2021/12/10 12:07:10;;;;;;;1.58;1.55;;;;;;;;;;5053629;28;20209;-68
2021/12/10 12:09:38;;;;;;;1.98;1.90;;;;;;;;;;5052561;28;20220;-68
2021/12/10 12:12:13;;;;;;;1.70;1.70;;;;;;;;;;5053477;28;20204;-70
2021/12/10 12:14:44;;;;;;;1.30;1.30;;;;;;;;;;5053797;28;20213;-65
2021/12/10 12:17:27;;;;;;;1.40;1.40;;;;;;;;;;5053415;28;20165;-69
2021/12/10 12:19:53;;;;;;;1.45;1.45;;;;;;;;;;5053536;28;20757;-68
2021/12/10 12:25:09;;;;;;;1.80;1.20;;;;;;;;;;5053419;28;20880;-68
2021/12/10 12:27:35;;;;;;;1.53;1.53;;;;;;;;;;5052412;28;20820;-67
2021/12/10 12:30:06;;;;;;;1.07;1.07;;;;;;;;;;5052318;28;20369;-66
2021/12/10 12:32:37;;;;;;;1.30;1.30;;;;;;;;;;5053555;28;20456;-65
2021/12/10 12:35:21;;;;;;;1.25;1.25;;;;;;;;;;5053392;28;20164;-68
2021/12/10 12:37:47;;;;;;;1.35;1.25;;;;;;;;;;5053585;28;20222;-68
2021/12/10 12:40:13;;;;;;;1.20;1.20;;;;;;;;;;5053272;28;20172;-64
2021/12/10 12:42:44;;;;;;;1.67;1.67;;;;;;;;;;5053625;28;20737;-63
2021/12/10 12:45:12;;;;;;;1.80;1.80;;;;;;;;;;5053490;28;20234;-66
2021/12/10 12:47:40;;;;;;;1.25;1.25;;;;;;;;;;5053124;28;20168;-62
2021/12/10 12:50:26;;;;;;;1.50;1.50;;;;;;;;;;5053228;28;20248;-63
2021/12/10 12:52:57;;;;;;;1.20;1.20;;;;;;;;;;5053004;28;20207;-64
2021/12/10 12:55:42;;;;;;;1.47;1.47;;;;;;;;;;5051877;28;20730;-64
2021/12/10 12:58:11;;;;;;;1.70;1.70;;;;;;;;;;5053220;28;20406;-64
2021/12/10 13:00:37;;;;;;;1.98;1.98;;;;;;;;;;5053303;28;20220;-64
2021/12/10 13:03:08;;;;;;;1.70;1.70;;;;;;;;;;5052969;28;20180;-67
2021/12/10 13:06:01;;;;;;;3.77;1.37;;;;;;;;;;5052907;28;20424;-68
2021/12/10 13:08:31;;;;;;;1.30;1.30;;;;;;;;;;5051625;28;20539;-65
2021/12/10 13:11:13;;;;;;;1.63;1.63;;;;;;;;;;5052812;28;20196;-66
2021/12/10 13:13:44;;;;;;;1.30;1.30;;;;;;;;;;5052822;28;20876;-65
2021/12/10 13:16:12;;;;;;;4.50;1.27;;;;;;;;;;5051563;28;20230;-68
2021/12/10 13:18:39;;;;;;;1.20;1.20;;;;;;;;;;5052806;28;20522;-65
2021/12/10 13:21:06;;;;;;;1.23;1.23;;;;;;;;;;5055145;28;20410;-65
2021/12/10 13:23:33;;;;;;;1.07;1.07;;;;;;;;;;5056720;28;20410;-71
2021/12/10 13:26:00;;;;;;;1.30;1.30;;;;;;;;;;5056815;28;20377;-73
2021/12/10 13:28:26;;;;;;;2.37;1.10;;;;;;;;;;5056726;28;20200;-72
2021/12/10 13:30:58;;;;;;;1.70;1.70;;;;;;;;;;5056489;28;20458;-73
2021/12/10 13:33:26;;;;;;;1.27;1.27;;;;;;;;;;5057018;28;20422;-65
2021/12/10 13:35:52;;;;;;;2.03;1.93;;;;;;;;;;5056497;28;20422;-66
2021/12/10 13:38:20;;;;;;;0.70;0.70;;;;;;;;;;5056508;28;20435;-64
2021/12/10 13:40:47;;;;;;;4.77;1.17;;;;;;;;;;5056305;28;20489;-65
2021/12/10 13:43:15;;;;;;;2.47;2.47;;;;;;;;;;5056208;28;20385;-62
2021/12/10 13:45:43;;;;;;;1.07;1.07;;;;;;;;;;5056161;28;20386;-65
2021/12/10 13:48:14;;;;;;;0.60;0.60;;;;;;;;;;5056226;28;20434;-63
2021/12/10 13:50:45;;;;;;;0.80;0.80;;;;;;;;;;5056159;28;20396;-63
2021/12/10 13:53:15;;;;;;;0.80;0.80;;;;;;;;;;5056412;28;20390;-63
2021/12/10 13:55:48;;;;;;;1.13;1.00;;;;;;;;;;5055939;28;20749;-63
2021/12/10 13:58:20;;;;;;;0.73;0.73;;;;;;;;;;5055910;28;20414;-63
2021/12/10 14:00:55;;;;;;;0.90;0.90;;;;;;;;;;5055979;28;20403;-63
2021/12/10 14:03:40;;;;;;;1.00;1.00;;;;;;;;;;5056120;28;20401;-64
2021/12/10 14:06:07;;;;;;;0.87;0.87;;;;;;;;;;5055895;28;20414;-62
2021/12/10 14:08:34;;;;;;;0.90;0.90;;;;;;;;;;5055700;28;20928;-62
2021/12/10 14:11:12;;;;;;;1.10;1.10;;;;;;;;;;5055760;28;20440;-64
2021/12/10 14:13:38;;;;;;;0.80;0.80;;;;;;;;;;5055775;28;20406;-64
2021/12/10 14:16:06;;;;;;;0.83;0.83;;;;;;;;;;5055726;28;20803;-62
2021/12/10 14:18:44;;;;;;;0.60;0.60;;;;;;;;;;5055941;28;20446;-63
2021/12/10 14:21:12;;;;;;;1.13;1.13;;;;;;;;;;5055610;28;20395;-64
2021/12/10 14:23:40;;;;;;;0.87;0.87;;;;;;;;;;5055518;28;20506;-65
2021/12/10 14:26:19;;;;;;;0.90;0.90;;;;;;;;;;5055423;28;20400;-64
2021/12/10 14:29:01;;;;;;;1.00;1.00;;;;;;;;;;5055578;28;20780;-63
2021/12/10 14:31:37;;;;;;;0.70;0.70;;;;;;;;;;5054787;28;20517;-64
2021/12/10 14:34:07;;;;;;;1.10;1.10;;;;;;;;;;5055309;28;20414;-64
2021/12/10 14:36:34;;;;;;;1.30;1.30;;;;;;;;;;5055397;28;20482;-64
2021/12/10 14:39:02;;;;;;;1.87;1.87;;;;;;;;;;5055401;28;20411;-64
2021/12/10 14:41:45;;;;;;;1.03;1.03;;;;;;;;;;5055188;28;20395;-63
2021/12/10 14:44:14;;;;;;;3.07;1.57;;;;;;;;;;5055195;28;20366;-63
2021/12/10 14:46:42;;;;;;;2.20;2.00;;;;;;;;;;5055196;28;20403;-63
2021/12/10 14:49:12;;;;;;;1.30;1.30;;;;;;;;;;5055062;28;20913;-64
2021/12/10 14:51:39;;;;;;;1.80;1.70;;;;;;;;;;5055071;28;20892;-66
2021/12/10 14:54:15;;;;;;;1.80;1.80;;;;;;;;;;5055078;28;20419;-62
2021/12/10 14:56:58;;;;;;;1.50;1.50;;;;;;;;;;5054976;28;20889;-64
2021/12/10 14:59:24;;;;;;;2.07;2.07;;;;;;;;;;5055201;28;20403;-64
2021/12/10 15:02:05;;;;;;;1.93;1.83;;;;;;;;;;5054917;28;20761;-64
2021/12/10 15:04:37;;;;;;;2.30;2.30;;;;;;;;;;5054883;28;20389;-63